| time (UTC) | temp F | wind direction | speed knots | gust knots | rain 1hr in | rain 24hr in | rain mn in | humidity % | barometer mb |
| 20260510094514 | 50 | 148 | 0.0 | 0.0 | 0.00 | 0.14 | 0.00 | 95 | 1011.0 |
| 20260510093020 | 50 | 148 | 0.0 | 1.7 | 0.00 | 0.14 | 0.00 | 95 | 1010.9 |
| 20260510091504 | 50 | 148 | 0.0 | 1.7 | 0.00 | 0.14 | 0.00 | 95 | 1010.6 |
| 20260510090008 | 50 | 246 | 0.0 | 1.7 | 0.00 | 0.15 | 0.00 | 95 | 1010.5 |
| 20260510084512 | 50 | 86 | 0.0 | 1.7 | 0.00 | 0.15 | 0.00 | 95 | 1010.5 |
| 20260510083019 | 50 | 86 | 0.0 | 1.7 | 0.00 | 0.15 | 0.00 | 95 | 1010.5 |
| 20260510081533 | 50 | 17 | 0.0 | 1.7 | 0.00 | 0.15 | 0.00 | 95 | 1010.6 |
| 20260510080008 | 50 | 17 | 0.0 | 0.9 | 0.00 | 0.15 | 0.00 | 95 | 1010.6 |
| 20260510074510 | 50 | 17 | 0.0 | 0.0 | 0.00 | 0.16 | 0.00 | 95 | 1010.7 |
| 20260510073022 | 50 | 17 | 0.0 | 1.7 | 0.00 | 0.16 | 0.00 | 95 | 1011.1 |
| 20260510071523 | 50 | 17 | 0.0 | 0.0 | 0.00 | 0.17 | 0.00 | 95 | 1011.2 |
| 20260510070026 | 50 | 17 | 0.0 | 0.0 | 0.00 | 0.17 | 0.00 | 95 | 1011.3 |
| 20260510064536 | 50 | 17 | 0.0 | 0.9 | 0.00 | 0.18 | 0.00 | 95 | 1011.5 |
| 20260510063018 | 50 | 17 | 0.0 | 1.7 | 0.00 | 0.18 | 0.00 | 95 | 1011.4 |
| 20260510061530 | 50 | 72 | 0.0 | 1.7 | 0.00 | 0.18 | 0.00 | 95 | 1011.4 |
| 20260510060032 | 50 | 5 | 0.0 | 1.7 | 0.00 | 0.18 | 0.00 | 95 | 1011.1 |
| 20260510054525 | 50 | 339 | 0.0 | 1.7 | 0.00 | 0.18 | 0.00 | 94 | 1011.0 |
| 20260510053011 | 50 | 51 | 0.0 | 1.7 | 0.00 | 0.18 | 0.00 | 94 | 1011.2 |
| 20260510051513 | 50 | 69 | 0.0 | 1.7 | 0.00 | 0.18 | 0.00 | 94 | 1011.2 |
| 20260510050018 | 50 | 69 | 0.0 | 1.7 | 0.00 | 0.18 | 0.00 | 94 | 1011.2 |
| 20260510044528 | 50 | 257 | 0.0 | 2.6 | 0.00 | 0.18 | 0.00 | 94 | 1011.0 |
| 20260510043026 | 50 | 25 | 0.0 | 1.7 | 0.01 | 0.18 | 0.00 | 94 | 1010.8 |
| 20260510041515 | 50 | 260 | 0.0 | 1.7 | 0.01 | 0.18 | 0.00 | 94 | 1010.6 |
| 20260510040021 | 50 | 255 | 0.0 | 1.7 | 0.01 | 0.18 | 0.00 | 94 | 1010.6 |
| 20260510034522 | 50 | 9 | 0.0 | 1.7 | 0.01 | 0.18 | 0.18 | 94 | 1010.6 |
| 20260510033026 | 50 | 22 | 0.0 | 1.7 | 0.00 | 0.17 | 0.17 | 94 | 1010.5 |
| 20260510031510 | 50 | 331 | 0.0 | 1.7 | 0.00 | 0.17 | 0.17 | 94 | 1010.7 |
| 20260510030016 | 50 | 297 | 0.0 | 1.7 | 0.00 | 0.17 | 0.17 | 94 | 1010.4 |
| 20260510024523 | 51 | 321 | 0.0 | 1.7 | 0.00 | 0.17 | 0.17 | 94 | 1010.7 |
| 20260510023022 | 51 | 45 | 0.0 | 1.7 | 0.00 | 0.17 | 0.17 | 94 | 1010.6 |
| 20260510021528 | 51 | 290 | 0.0 | 1.7 | 0.00 | 0.17 | 0.17 | 94 | 1010.5 |
| 20260510020014 | 51 | 38 | 0.0 | 1.7 | 0.00 | 0.17 | 0.17 | 94 | 1010.4 |
| 20260510014517 | 51 | 314 | 0.0 | 0.9 | 0.00 | 0.17 | 0.17 | 94 | 1010.3 |
| 20260510013025 | 51 | 314 | 0.0 | 0.0 | 0.00 | 0.17 | 0.17 | 93 | 1010.1 |
| 20260510011525 | 51 | 314 | 0.0 | 1.7 | 0.00 | 0.17 | 0.17 | 93 | 1010.3 |
| 20260510010027 | 51 | 294 | 0.0 | 1.7 | 0.00 | 0.17 | 0.17 | 93 | 1010.1 |
| 20260510004516 | 51 | 346 | 0.0 | 3.5 | 0.00 | 0.17 | 0.17 | 93 | 1010.0 |
| 20260510003021 | 51 | 287 | 0.0 | 1.7 | 0.00 | 0.17 | 0.17 | 93 | 1009.8 |
| 20260510001506 | 52 | 248 | 0.0 | 1.7 | 0.00 | 0.17 | 0.17 | 93 | 1009.5 |
| 20260510000008 | 52 | 289 | 0.0 | 1.7 | 0.01 | 0.17 | 0.17 | 92 | 1009.6 |
| 20260509234518 | 52 | 23 | 0.0 | 1.7 | 0.01 | 0.17 | 0.17 | 92 | 1009.3 |
| 20260509233030 | 52 | 313 | 0.0 | 1.7 | 0.01 | 0.17 | 0.17 | 91 | 1008.8 |
| 20260509231504 | 53 | 253 | 0.0 | 1.7 | 0.01 | 0.17 | 0.17 | 91 | 1008.7 |
| 20260509230006 | 53 | 256 | 0.9 | 1.7 | 0.00 | 0.16 | 0.16 | 91 | 1009.0 |
| 20260509224513 | 53 | 320 | 0.0 | 1.7 | 0.00 | 0.16 | 0.16 | 91 | 1009.0 |
| 20260509223013 | 53 | 265 | 0.9 | 1.7 | 0.00 | 0.16 | 0.16 | 92 | 1009.1 |
| 20260509221520 | 53 | 317 | 0.0 | 1.7 | 0.00 | 0.16 | 0.16 | 92 | 1009.2 |
| 20260509220005 | 53 | 302 | 0.0 | 1.7 | 0.00 | 0.16 | 0.16 | 92 | 1009.3 |
| 20260509214508 | 53 | 276 | 0.0 | 2.6 | 0.01 | 0.16 | 0.16 | 93 | 1009.3 |
| 20260509213012 | 52 | 14 | 0.0 | 1.7 | 0.01 | 0.16 | 0.16 | 92 | 1009.2 |
| 20260509211515 | 52 | 14 | 0.0 | 2.6 | 0.01 | 0.16 | 0.16 | 92 | 1009.5 |
| 20260509210024 | 52 | 279 | 0.0 | 1.7 | 0.01 | 0.16 | 0.16 | 93 | 1009.7 |
| 20260509204505 | 52 | 249 | 0.0 | 0.9 | 0.00 | 0.15 | 0.15 | 93 | 1009.6 |
| 20260509203010 | 52 | 134 | 0.0 | 1.7 | 0.01 | 0.15 | 0.15 | 93 | 1009.8 |
| 20260509201515 | 52 | 328 | 0.0 | 1.7 | 0.01 | 0.15 | 0.15 | 93 | 1010.1 |
| 20260509200020 | 51 | 287 | 0.0 | 1.7 | 0.01 | 0.15 | 0.15 | 93 | 1010.1 |
| 20260509194521 | 51 | 342 | 0.0 | 3.5 | 0.01 | 0.15 | 0.15 | 92 | 1010.4 |
| 20260509193006 | 52 | 262 | 0.0 | 1.7 | 0.01 | 0.14 | 0.14 | 93 | 1010.7 |
| 20260509191515 | 52 | 319 | 0.0 | 2.6 | 0.01 | 0.14 | 0.14 | 93 | 1010.9 |
| 20260509190019 | 52 | 95 | 0.9 | 5.2 | 0.01 | 0.14 | 0.14 | 93 | 1011.0 |
| 20260509184529 | 52 | 322 | 0.0 | 1.7 | 0.02 | 0.14 | 0.14 | 94 | 1010.9 |
| 20260509183031 | 51 | 258 | 0.0 | 2.6 | 0.01 | 0.13 | 0.13 | 94 | 1011.0 |
| 20260509181511 | 51 | 331 | 0.9 | 6.1 | 0.01 | 0.13 | 0.13 | 93 | 1011.1 |
| 20260509180018 | 51 | 324 | 1.7 | 7.0 | 0.02 | 0.13 | 0.13 | 93 | 1011.1 |
| 20260509174520 | 51 | 340 | 0.9 | 3.5 | 0.01 | 0.12 | 0.12 | 93 | 1010.9 |
| 20260509173028 | 51 | 11 | 2.6 | 6.1 | 0.01 | 0.12 | 0.12 | 93 | 1010.9 |
| 20260509171519 | 51 | 13 | 0.9 | 2.6 | 0.02 | 0.12 | 0.12 | 93 | 1010.8 |
| 20260509170014 | 50 | 254 | 0.9 | 2.6 | 0.01 | 0.11 | 0.11 | 93 | 1010.9 |
| 20260509164518 | 50 | 352 | 0.0 | 3.5 | 0.01 | 0.11 | 0.11 | 93 | 1010.9 |
| 20260509163048 | 50 | 280 | 0.9 | 2.6 | 0.02 | 0.11 | 0.11 | 93 | 1010.8 |
| 20260509161532 | 50 | 178 | 0.9 | 3.5 | 0.01 | 0.10 | 0.10 | 93 | 1010.9 |
| 20260509160010 | 50 | 255 | 0.0 | 1.7 | 0.02 | 0.10 | 0.10 | 93 | 1011.4 |
| 20260509154515 | 49 | 222 | 0.0 | 1.7 | 0.02 | 0.10 | 0.10 | 93 | 1011.6 |
| 20260509153025 | 49 | 72 | 0.0 | 1.7 | 0.01 | 0.09 | 0.09 | 92 | 1011.7 |
| 20260509151506 | 49 | 72 | 0.0 | 1.7 | 0.02 | 0.09 | 0.09 | 92 | 1011.8 |
| 20260509150008 | 49 | 279 | 0.0 | 1.7 | 0.01 | 0.08 | 0.08 | 92 | 1011.7 |
| 20260509144517 | 48 | 89 | 0.0 | 1.7 | 0.02 | 0.08 | 0.08 | 92 | 1011.8 |
| 20260509143026 | 48 | 165 | 0.0 | 1.7 | 0.02 | 0.08 | 0.08 | 91 | 1011.7 |
| 20260509141526 | 48 | 96 | 0.9 | 1.7 | 0.01 | 0.07 | 0.07 | 91 | 1011.6 |
| 20260509140005 | 48 | 303 | 0.0 | 2.6 | 0.02 | 0.07 | 0.07 | 91 | 1011.6 |
| 20260509134513 | 48 | 212 | 0.0 | 2.6 | 0.01 | 0.06 | 0.06 | 91 | 1011.7 |
| 20260509133019 | 47 | 112 | 0.0 | 1.7 | 0.01 | 0.06 | 0.06 | 92 | 1011.9 |
| 20260509131519 | 47 | 292 | 0.0 | 1.7 | 0.01 | 0.06 | 0.06 | 92 | 1011.9 |
| 20260509130026 | 47 | 202 | 0.0 | 1.7 | 0.00 | 0.05 | 0.05 | 92 | 1012.0 |
| 20260509124508 | 47 | 30 | 0.0 | 1.7 | 0.00 | 0.05 | 0.05 | 93 | 1011.8 |
| 20260509123011 | 47 | 9 | 0.9 | 1.7 | 0.00 | 0.05 | 0.05 | 93 | 1011.5 |
| 20260509121521 | 47 | 55 | 0.9 | 2.6 | 0.01 | 0.05 | 0.05 | 94 | 1011.6 |
| 20260509120024 | 47 | 65 | 0.0 | 1.7 | 0.01 | 0.05 | 0.05 | 94 | 1011.6 |
| 20260509114546 | 47 | 116 | 0.0 | 1.7 | 0.01 | 0.05 | 0.05 | 94 | 1011.5 |
| 20260509113011 | 46 | 166 | 0.0 | 1.7 | 0.01 | 0.05 | 0.05 | 94 | 1011.8 |
| 20260509111516 | 46 | 119 | 0.0 | 1.7 | 0.00 | 0.04 | 0.04 | 94 | 1011.9 |
| 20260509110021 | 46 | 123 | 0.0 | 1.7 | 0.00 | 0.04 | 0.04 | 94 | 1012.0 |
| 20260509104526 | 46 | 123 | 0.0 | 0.0 | 0.00 | 0.04 | 0.04 | 94 | 1011.7 |
| 20260509103027 | 46 | 123 | 0.0 | 0.0 | 0.00 | 0.04 | 0.04 | 94 | 1011.7 |
| 20260509101514 | 46 | 123 | 0.0 | 0.0 | 0.00 | 0.04 | 0.04 | 93 | 1011.4 |
| 20260509100022 | 46 | 123 | 0.0 | 0.0 | 0.01 | 0.04 | 0.04 | 93 | 1011.8 |